Time;durP1;ratioP1;P1;durP2;ratioP2;P2;SDS_P1;SDS_P2;PMS_P1;PMS_P2;Temp;Humidity;BMP_temperature;BMP_pressure;BME280_temperature;BME280_humidity;BME280_pressure;Samples;Min_cycle;Max_cycle;Signal;HPM_P1;HPM_P2
2022/06/04 00:00:26;;;;;;;9.90;6.25;;;11.90;99.90;;;;;;5020048;28;20084;-68
2022/06/04 00:02:53;;;;;;;7.53;6.63;;;11.80;99.90;;;;;;4998513;28;20041;-68
2022/06/04 00:05:26;;;;;;;7.00;6.35;;;11.80;99.90;;;;;;5015682;28;20096;-68
2022/06/04 00:07:57;;;;;;;7.95;6.80;;;11.80;99.90;;;;;;5020779;28;20409;-70
2022/06/04 00:16:06;;;;;;;8.32;5.75;;;11.80;99.90;;;;;;5017082;28;20080;-66
2022/06/04 00:18:35;;;;;;;8.02;5.63;;;11.80;99.90;;;;;;5021965;28;20077;-65
2022/06/04 00:21:02;;;;;;;8.63;6.90;;;11.80;99.90;;;;;;5015779;28;20110;-70
2022/06/04 00:23:29;;;;;;;8.50;6.57;;;11.80;99.90;;;;;;5021058;28;20295;-69
2022/06/04 00:25:58;;;;;;;7.82;6.43;;;11.80;99.90;;;;;;5021699;28;20081;-66
2022/06/04 00:28:26;;;;;;;10.00;7.00;;;11.80;99.90;;;;;;5019057;28;20045;-67
2022/06/04 00:30:56;;;;;;;8.80;6.57;;;11.80;99.90;;;;;;5023296;28;20041;-67
2022/06/04 00:33:24;;;;;;;7.28;5.55;;;11.80;99.90;;;;;;5025789;28;20042;-68
2022/06/04 00:35:54;;;;;;;9.63;6.85;;;11.70;99.90;;;;;;5020415;28;20049;-70
2022/06/04 00:38:23;;;;;;;5.93;5.40;;;11.70;99.90;;;;;;5015064;28;20538;-69
2022/06/04 00:41:11;;;;;;;6.38;5.47;;;11.80;99.90;;;;;;5017347;28;20114;-65
2022/06/04 00:44:23;;;;;;;8.90;6.13;;;11.70;99.90;;;;;;5021363;28;20380;-67
2022/06/04 00:47:23;;;;;;;10.02;6.30;;;11.70;99.90;;;;;;5006253;28;20137;-66
2022/06/04 00:49:50;;;;;;;7.55;6.03;;;11.70;99.90;;;;;;5012934;28;20050;-67
2022/06/04 00:52:17;;;;;;;6.07;5.40;;;11.70;99.90;;;;;;5017823;28;20073;-67
2022/06/04 00:54:46;;;;;;;8.27;5.53;;;11.60;99.90;;;;;;5012491;28;20104;-67
2022/06/04 00:57:43;;;;;;;9.07;7.17;;;11.60;99.90;;;;;;5019967;28;20484;-70
2022/06/04 01:00:22;;;;;;;12.25;7.43;;;11.60;99.90;;;;;;5020242;28;20290;-68
2022/06/04 01:02:58;;;;;;;10.35;6.20;;;11.60;99.90;;;;;;5016613;28;20544;-65
2022/06/04 01:06:00;;;;;;;12.77;7.65;;;11.60;99.90;;;;;;5016117;28;20058;-68
2022/06/04 01:08:43;;;;;;;6.82;5.65;;;11.50;99.90;;;;;;5014852;28;20072;-69
2022/06/04 01:12:09;;;;;;;9.90;5.72;;;11.50;99.90;;;;;;5018554;28;20049;-67
2022/06/04 01:14:35;;;;;;;6.75;4.90;;;11.50;99.90;;;;;;4999595;28;20053;-65
2022/06/04 01:17:05;;;;;;;12.30;6.45;;;11.40;99.90;;;;;;5022048;28;20045;-69
2022/06/04 01:19:57;;;;;;;6.30;5.70;;;11.40;99.90;;;;;;5018178;28;20468;-67
2022/06/04 01:22:47;;;;;;;12.25;6.60;;;11.30;99.90;;;;;;5012318;28;20107;-66
2022/06/04 01:25:30;;;;;;;8.20;6.72;;;11.30;99.90;;;;;;5009972;28;20050;-67
2022/06/04 01:28:06;;;;;;;11.73;5.85;;;11.30;99.90;;;;;;5018417;28;20452;-66
2022/06/04 01:30:49;;;;;;;11.50;6.28;;;11.20;99.90;;;;;;5014074;28;20080;-69
2022/06/04 01:33:37;;;;;;;8.35;6.60;;;11.20;99.90;;;;;;5022883;28;20073;-66
2022/06/04 01:36:13;;;;;;;9.77;5.53;;;11.20;99.90;;;;;;5016169;28;20139;-68
2022/06/04 01:38:45;;;;;;;7.70;6.15;;;11.20;99.90;;;;;;5019892;28;20045;-66
2022/06/04 01:41:22;;;;;;;7.43;6.70;;;11.10;99.90;;;;;;5014672;28;20049;-66
2022/06/04 01:43:59;;;;;;;8.63;6.60;;;11.10;99.90;;;;;;5016167;28;20901;-67
2022/06/04 01:46:26;;;;;;;9.75;7.10;;;11.10;99.90;;;;;;5020050;28;20561;-65
2022/06/04 01:48:59;;;;;;;10.60;6.75;;;11.00;99.90;;;;;;5023371;28;20041;-67
2022/06/04 01:51:30;;;;;;;7.90;6.22;;;11.00;99.90;;;;;;5016999;28;20080;-65
2022/06/04 01:54:08;;;;;;;8.02;6.65;;;11.00;99.90;;;;;;5023009;28;20099;-65
2022/06/04 01:56:39;;;;;;;8.05;6.65;;;10.90;99.90;;;;;;5017200;28;20073;-67
2022/06/04 01:59:18;;;;;;;8.07;7.07;;;10.90;99.90;;;;;;5019503;28;20095;-66
2022/06/04 02:01:47;;;;;;;9.82;7.38;;;10.90;99.90;;;;;;5022563;28;20566;-66
2022/06/04 02:04:18;;;;;;;10.30;6.95;;;10.80;99.90;;;;;;5015709;28;20151;-67
2022/06/04 02:07:29;;;;;;;9.65;6.63;;;10.80;99.90;;;;;;5022334;28;20050;-68
2022/06/04 02:09:42;;;;;;;8.15;7.20;;;10.80;99.90;;;;;;5013114;28;20050;-71
2022/06/04 02:12:11;;;;;;;12.38;7.55;;;10.80;99.90;;;;;;5017936;28;20111;-65
2022/06/04 02:14:39;;;;;;;10.27;6.85;;;10.80;99.90;;;;;;5013425;28;20111;-65
2022/06/04 02:17:09;;;;;;;11.05;7.85;;;10.80;99.90;;;;;;5018288;28;20187;-65
2022/06/04 02:19:36;;;;;;;8.93;6.65;;;10.80;99.90;;;;;;5019794;28;20057;-66
2022/06/04 02:22:03;;;;;;;9.15;7.47;;;10.80;99.90;;;;;;5021288;28;20058;-65
2022/06/04 02:24:30;;;;;;;8.25;6.80;;;10.70;99.90;;;;;;5020119;28;20176;-68
2022/06/04 02:26:57;;;;;;;9.20;6.78;;;10.70;99.90;;;;;;5021590;28;20642;-68
2022/06/04 02:29:24;;;;;;;15.60;6.45;;;10.70;99.90;;;;;;5017369;28;20060;-65
2022/06/04 02:32:20;;;;;;;13.15;7.18;;;10.70;99.90;;;;;;5022551;28;20558;-71
2022/06/04 02:35:08;;;;;;;9.77;7.30;;;10.70;99.90;;;;;;5020230;28;20060;-66
2022/06/04 02:37:50;;;;;;;8.57;6.95;;;10.70;99.90;;;;;;5020908;28;20049;-65
2022/06/04 02:40:24;;;;;;;11.00;7.38;;;10.60;99.90;;;;;;5014953;28;20081;-71
2022/06/04 02:43:02;;;;;;;10.15;7.00;;;10.70;99.90;;;;;;5021750;28;20042;-66
2022/06/04 02:46:09;;;;;;;11.27;9.10;;;10.70;99.90;;;;;;5015668;28;20506;-66
2022/06/04 02:48:41;;;;;;;11.05;8.75;;;10.70;99.90;;;;;;5014769;28;20045;-66
2022/06/04 02:51:20;;;;;;;9.63;6.78;;;10.70;99.90;;;;;;5018095;28;20067;-68
2022/06/04 02:53:49;;;;;;;11.95;8.50;;;10.70;99.90;;;;;;5015023;28;20679;-68
2022/06/04 02:56:27;;;;;;;11.43;7.82;;;10.70;99.90;;;;;;5015802;28;20476;-68
2022/06/04 02:58:58;;;;;;;10.98;6.88;;;10.70;99.90;;;;;;5014523;28;20162;-66
2022/06/04 03:01:28;;;;;;;8.80;7.20;;;10.70;99.90;;;;;;5016629;28;20044;-66
2022/06/04 03:03:55;;;;;;;;;;;10.70;99.90;;;;;;5019117;28;20064;-67
2022/06/04 03:06:30;;;;;;;13.25;7.70;;;10.70;99.90;;;;;;5020086;28;19987;-66
2022/06/04 03:09:00;;;;;;;12.82;7.40;;;10.80;99.90;;;;;;5014652;28;20107;-67
2022/06/04 03:11:28;;;;;;;13.35;7.53;;;10.80;99.90;;;;;;5019693;28;20069;-67
2022/06/04 03:13:55;;;;;;;13.77;6.95;;;10.80;99.90;;;;;;5020851;28;20103;-69
2022/06/04 03:16:22;;;;;;;8.60;6.82;;;10.90;99.90;;;;;;5015139;28;20088;-71
2022/06/04 03:18:49;;;;;;;9.10;6.10;;;10.80;99.90;;;;;;5022094;28;20047;-67
2022/06/04 03:21:16;;;;;;;8.75;7.32;;;10.90;99.90;;;;;;5021585;28;20053;-67
2022/06/04 03:23:42;;;;;;;8.57;7.03;;;10.90;99.90;;;;;;5017853;28;20686;-72
2022/06/04 03:26:09;;;;;;;9.80;7.57;;;10.90;99.90;;;;;;5020836;28;20387;-69
2022/06/04 03:28:36;;;;;;;10.90;6.97;;;10.90;99.90;;;;;;5018721;28;20049;-71
2022/06/04 03:31:03;;;;;;;8.93;6.47;;;10.90;99.90;;;;;;5020321;28;20037;-66
2022/06/04 03:33:30;;;;;;;9.63;7.97;;;11.00;99.90;;;;;;5017446;28;20072;-65
2022/06/04 03:35:57;;;;;;;10.55;7.65;;;11.00;99.90;;;;;;5017077;28;20679;-68
2022/06/04 03:38:24;;;;;;;8.40;6.72;;;11.00;99.90;;;;;;5016858;28;20049;-67
2022/06/04 03:40:51;;;;;;;7.10;6.40;;;11.00;99.90;;;;;;5015477;28;20163;-65
2022/06/04 03:43:18;;;;;;;13.30;8.32;;;11.10;99.90;;;;;;5021657;28;20103;-71
2022/06/04 03:45:45;;;;;;;11.30;7.63;;;11.10;99.90;;;;;;5018244;28;20107;-67
2022/06/04 03:48:12;;;;;;;8.82;7.25;;;11.10;99.90;;;;;;5014049;28;20525;-68
2022/06/04 03:50:39;;;;;;;10.05;7.20;;;11.10;99.90;;;;;;5018670;28;20449;-65
2022/06/04 03:53:07;;;;;;;9.75;7.55;;;11.20;99.90;;;;;;5018945;28;20077;-72
2022/06/04 03:55:34;;;;;;;10.07;7.13;;;11.20;99.90;;;;;;5019647;28;20107;-66
2022/06/04 03:58:01;;;;;;;13.50;7.95;;;11.30;99.90;;;;;;5021553;28;20092;-66
2022/06/04 04:00:35;;;;;;;9.52;6.90;;;11.30;99.90;;;;;;5014575;28;20779;-66
2022/06/04 04:03:09;;;;;;;10.25;7.53;;;11.40;99.90;;;;;;5018679;28;20057;-65
2022/06/04 04:05:41;;;;;;;9.50;8.55;;;11.40;99.90;;;;;;5012156;28;20096;-66
2022/06/04 04:08:09;;;;;;;9.13;6.80;;;11.40;99.90;;;;;;5019351;28;20090;-66
2022/06/04 04:10:40;;;;;;;9.05;7.40;;;11.40;99.90;;;;;;5017289;28;20073;-66
2022/06/04 04:13:07;;;;;;;;;;;11.40;99.90;;;;;;5020791;28;20054;-66
2022/06/04 04:15:34;;;;;;;8.50;7.00;;;11.40;99.90;;;;;;5014139;28;19944;-66
2022/06/04 04:18:01;;;;;;;10.13;7.10;;;11.40;99.90;;;;;;5013523;28;20046;-71
2022/06/04 04:20:34;;;;;;;8.18;7.40;;;11.40;99.90;;;;;;5008863;28;20818;-67
2022/06/04 04:23:04;;;;;;;10.07;7.50;;;11.40;99.90;;;;;;5015045;28;20227;-66
2022/06/04 04:25:32;;;;;;;8.27;6.90;;;11.40;99.90;;;;;;5016078;28;20152;-70
2022/06/04 04:27:59;;;;;;;10.20;7.15;;;11.40;99.90;;;;;;5021166;28;20111;-65
2022/06/04 04:30:29;;;;;;;8.65;6.80;;;11.40;99.90;;;;;;5017508;28;20142;-65
2022/06/04 04:32:57;;;;;;;7.65;6.38;;;11.40;99.90;;;;;;5020276;28;20111;-66
2022/06/04 04:35:29;;;;;;;9.10;7.25;;;11.40;99.90;;;;;;5015482;28;20053;-66
2022/06/04 04:37:56;;;;;;;;;;;11.40;99.90;;;;;;5016871;28;20091;-70
2022/06/04 04:40:25;;;;;;;8.52;6.43;;;11.50;99.90;;;;;;5014499;28;20713;-65
2022/06/04 04:42:53;;;;;;;9.57;6.75;;;11.50;99.90;;;;;;5018169;28;20522;-65
2022/06/04 04:45:22;;;;;;;13.82;7.63;;;11.50;99.90;;;;;;5018418;28;20187;-71
2022/06/04 04:47:50;;;;;;;7.43;6.55;;;11.50;99.90;;;;;;5019806;28;20091;-65
2022/06/04 04:50:30;;;;;;;12.52;7.28;;;11.60;99.90;;;;;;5016266;28;20084;-70
2022/06/04 04:52:58;;;;;;;11.88;8.38;;;11.60;99.90;;;;;;5015094;28;20521;-69
2022/06/04 04:55:30;;;;;;;8.00;7.07;;;11.60;99.90;;;;;;5018150;28;20045;-66
2022/06/04 04:57:57;;;;;;;7.72;6.93;;;11.60;99.90;;;;;;5019766;28;20045;-68
2022/06/04 05:00:24;;;;;;;9.75;7.30;;;11.60;99.90;;;;;;5016949;28;20046;-67
2022/06/04 05:02:51;;;;;;;13.13;8.85;;;11.60;99.90;;;;;;5017313;28;20049;-67
2022/06/04 05:05:18;;;;;;;9.45;7.18;;;11.70;99.90;;;;;;5018671;28;20061;-70
2022/06/04 05:07:45;;;;;;;9.20;6.78;;;11.70;99.90;;;;;;5018256;28;20049;-66
2022/06/04 05:10:13;;;;;;;10.95;7.97;;;11.70;99.90;;;;;;5014140;28;20057;-66
2022/06/04 05:12:40;;;;;;;9.70;7.38;;;11.80;99.90;;;;;;5020156;28;20395;-66
2022/06/04 05:15:08;;;;;;;10.13;6.97;;;11.80;99.90;;;;;;5018030;28;20451;-66
2022/06/04 05:17:35;;;;;;;10.98;7.70;;;11.90;99.90;;;;;;5016148;28;20164;-66
2022/06/04 05:20:03;;;;;;;12.63;8.38;;;11.90;99.90;;;;;;5021834;28;20150;-69
2022/06/04 05:22:30;;;;;;;8.27;6.75;;;11.90;99.90;;;;;;5017283;28;20667;-65
2022/06/04 05:24:57;;;;;;;8.20;6.82;;;11.90;99.90;;;;;;5016276;28;20049;-68
2022/06/04 05:27:24;;;;;;;11.77;8.25;;;11.80;99.90;;;;;;5021019;28;20073;-70
2022/06/04 05:29:51;;;;;;;10.73;7.47;;;11.80;99.90;;;;;;5022172;28;20820;-70
2022/06/04 05:32:17;;;;;;;14.20;7.72;;;11.80;99.90;;;;;;5015675;28;20049;-65
2022/06/04 05:34:44;;;;;;;12.27;7.38;;;11.80;99.90;;;;;;5023469;28;20116;-67
2022/06/04 05:37:11;;;;;;;8.20;7.05;;;11.80;99.90;;;;;;5000839;28;20139;-66
2022/06/04 05:39:38;;;;;;;8.32;6.63;;;11.80;99.90;;;;;;5021757;28;20050;-65
2022/06/04 05:42:06;;;;;;;11.23;7.80;;;11.80;99.90;;;;;;5018237;28;20103;-70
2022/06/04 05:44:33;;;;;;;10.90;7.40;;;11.80;99.90;;;;;;5019821;28;20075;-65
2022/06/04 05:47:04;;;;;;;8.80;7.07;;;11.80;99.90;;;;;;5020939;28;20080;-70
2022/06/04 05:49:31;;;;;;;9.70;7.18;;;11.90;99.90;;;;;;5022515;28;20049;-71
2022/06/04 05:51:58;;;;;;;9.40;7.25;;;12.00;99.90;;;;;;5022798;28;20079;-67
2022/06/04 05:54:25;;;;;;;11.15;8.13;;;11.90;99.90;;;;;;5024188;28;20055;-68
2022/06/04 05:56:52;;;;;;;11.30;7.03;;;12.00;99.90;;;;;;5017262;28;20141;-71
2022/06/04 05:59:22;;;;;;;11.73;7.78;;;12.00;99.90;;;;;;5016530;28;20081;-67
2022/06/04 06:01:50;;;;;;;8.27;6.60;;;12.00;99.90;;;;;;5012119;28;20073;-68
2022/06/04 06:04:18;;;;;;;9.40;6.60;;;12.00;99.90;;;;;;5016517;28;20455;-65
2022/06/04 06:06:48;;;;;;;10.48;7.13;;;12.00;99.90;;;;;;5016344;28;20067;-66
2022/06/04 06:09:16;;;;;;;;;;;12.00;99.90;;;;;;5017776;28;20050;-69
2022/06/04 06:11:44;;;;;;;11.10;6.65;;;12.00;99.90;;;;;;5012036;28;19980;-71
2022/06/04 06:14:12;;;;;;;12.45;7.93;;;12.10;99.90;;;;;;5005565;28;20049;-68
2022/06/04 06:16:42;;;;;;;13.02;7.53;;;12.10;99.90;;;;;;5012753;28;20103;-68
2022/06/04 06:19:10;;;;;;;7.30;6.15;;;12.10;99.90;;;;;;5015694;28;20514;-68
2022/06/04 06:21:37;;;;;;;8.52;6.53;;;12.10;99.90;;;;;;5021502;28;20076;-67
2022/06/04 06:24:08;;;;;;;11.95;7.13;;;12.10;99.90;;;;;;5018805;28;20076;-67
2022/06/04 06:26:43;;;;;;;7.95;6.72;;;12.20;99.90;;;;;;5018557;28;20053;-65
2022/06/04 06:29:10;;;;;;;9.20;7.18;;;12.10;99.90;;;;;;5014158;28;20057;-69
2022/06/04 06:31:37;;;;;;;9.15;7.00;;;12.00;99.90;;;;;;5019000;28;20107;-68
2022/06/04 06:34:04;;;;;;;10.88;6.85;;;12.10;99.90;;;;;;5017332;28;20045;-66
2022/06/04 06:36:31;;;;;;;11.52;6.95;;;12.10;99.90;;;;;;5023992;28;20073;-65
2022/06/04 06:38:58;;;;;;;10.55;7.25;;;12.10;99.90;;;;;;5021962;28;20070;-66
2022/06/04 06:41:25;;;;;;;9.52;7.10;;;12.10;99.90;;;;;;5017801;28;20073;-65
2022/06/04 06:43:53;;;;;;;8.27;7.25;;;12.00;99.90;;;;;;5013142;28;20769;-73
2022/06/04 06:46:31;;;;;;;8.57;5.82;;;12.00;99.90;;;;;;5014591;28;20668;-68
2022/06/04 06:49:19;;;;;;;10.38;7.60;;;12.10;99.90;;;;;;5016441;28;20046;-68
2022/06/04 06:51:54;;;;;;;11.13;7.20;;;12.00;99.90;;;;;;5017192;28;20045;-70
2022/06/04 06:54:23;;;;;;;7.97;7.18;;;12.10;99.90;;;;;;5013585;28;20096;-65
2022/06/04 06:56:52;;;;;;;11.68;6.60;;;12.10;99.90;;;;;;5014669;28;20128;-65
2022/06/04 06:59:24;;;;;;;8.43;6.32;;;12.10;99.90;;;;;;5015655;28;20077;-65
2022/06/04 07:01:52;;;;;;;10.20;7.00;;;12.20;99.90;;;;;;5016540;28;20041;-65
2022/06/04 07:04:21;;;;;;;7.82;7.05;;;12.20;99.90;;;;;;5011586;28;20045;-66
2022/06/04 07:06:51;;;;;;;12.10;7.03;;;12.20;99.90;;;;;;5012651;28;20041;-69
2022/06/04 07:09:27;;;;;;;12.55;6.82;;;12.20;99.90;;;;;;5015501;28;20042;-67
2022/06/04 07:11:54;;;;;;;7.75;6.85;;;12.20;99.90;;;;;;4997511;28;20126;-67
2022/06/04 07:14:23;;;;;;;8.55;6.82;;;12.20;99.90;;;;;;5023495;28;20048;-68
2022/06/04 07:16:50;;;;;;;7.38;6.13;;;12.20;99.90;;;;;;5014235;28;20052;-66
2022/06/04 07:19:19;;;;;;;9.65;7.57;;;12.30;99.90;;;;;;5019070;28;20736;-67
2022/06/04 07:21:46;;;;;;;7.70;6.50;;;12.30;99.90;;;;;;5020570;28;20061;-68
2022/06/04 07:24:13;;;;;;;9.55;7.65;;;12.30;99.90;;;;;;5014942;28;20057;-68
2022/06/04 07:26:42;;;;;;;14.20;6.57;;;12.30;99.90;;;;;;5019861;28;20072;-66
2022/06/04 07:29:10;;;;;;;10.27;7.18;;;12.40;99.90;;;;;;5013490;28;20338;-68
2022/06/04 07:31:37;;;;;;;7.55;6.20;;;12.40;99.90;;;;;;5019587;28;20041;-69
2022/06/04 07:34:05;;;;;;;8.60;5.82;;;12.40;99.90;;;;;;5014055;28;20132;-66
2022/06/04 07:36:40;;;;;;;16.90;8.27;;;12.40;99.90;;;;;;5011052;28;20103;-65
2022/06/04 07:39:09;;;;;;;9.30;7.00;;;12.50;99.90;;;;;;5014453;28;20049;-71
2022/06/04 07:41:40;;;;;;;8.50;7.65;;;12.40;99.90;;;;;;5013934;28;20088;-70
2022/06/04 07:44:08;;;;;;;7.18;5.88;;;12.50;99.90;;;;;;5013582;28;20088;-70
2022/06/04 07:46:35;;;;;;;11.40;7.25;;;12.60;99.90;;;;;;5018866;28;20057;-65
2022/06/04 07:49:05;;;;;;;7.63;6.93;;;12.60;99.90;;;;;;5010225;28;20771;-68
2022/06/04 07:51:33;;;;;;;8.07;7.35;;;12.60;99.90;;;;;;5017683;28;20057;-66
2022/06/04 07:54:01;;;;;;;7.32;6.63;;;12.60;99.90;;;;;;5014959;28;20072;-66
2022/06/04 07:56:28;;;;;;;8.82;7.78;;;12.70;99.90;;;;;;5009752;28;20136;-66
2022/06/04 07:58:55;;;;;;;10.38;6.35;;;12.70;99.90;;;;;;5017636;28;20061;-65
2022/06/04 08:01:23;;;;;;;9.15;6.65;;;12.70;99.90;;;;;;5018885;28;20102;-66
2022/06/04 08:03:51;;;;;;;7.97;7.13;;;12.80;99.90;;;;;;5014154;28;20049;-66
2022/06/04 08:06:19;;;;;;;8.70;6.35;;;12.80;99.90;;;;;;5018596;28;20147;-67
2022/06/04 08:08:48;;;;;;;8.82;6.80;;;12.90;99.90;;;;;;5007884;28;20200;-67
2022/06/04 08:11:34;;;;;;;11.60;7.15;;;13.00;99.90;;;;;;5017332;28;20411;-68
2022/06/04 08:14:04;;;;;;;8.68;6.13;;;12.90;99.90;;;;;;5012456;28;20053;-68
2022/06/04 08:16:32;;;;;;;8.10;6.88;;;13.00;99.90;;;;;;5012310;28;20081;-66
2022/06/04 08:18:59;;;;;;;12.85;7.95;;;13.00;99.90;;;;;;5015476;28;20463;-65
2022/06/04 08:21:25;;;;;;;10.98;7.20;;;13.00;99.90;;;;;;5018166;28;20077;-66
2022/06/04 08:23:52;;;;;;;9.98;6.68;;;13.10;99.90;;;;;;5008759;28;20046;-67
2022/06/04 08:26:19;;;;;;;8.65;6.80;;;13.20;99.90;;;;;;5014350;28;20462;-67
2022/06/04 08:28:46;;;;;;;8.05;6.75;;;13.10;99.90;;;;;;5014589;28;20049;-69
2022/06/04 08:31:15;;;;;;;12.15;6.30;;;13.00;99.90;;;;;;5016533;28;20053;-66
2022/06/04 08:33:42;;;;;;;7.78;5.78;;;13.10;99.90;;;;;;5012146;28;20053;-68
2022/06/04 08:36:12;;;;;;;7.47;6.40;;;13.10;99.90;;;;;;5016404;28;20069;-67
2022/06/04 08:38:40;;;;;;;;;;;13.10;99.90;;;;;;5012345;28;20037;-67
2022/06/04 08:41:17;;;;;;;9.90;6.32;;;13.10;99.90;;;;;;5014575;28;19960;-65
2022/06/04 08:44:06;;;;;;;12.75;7.47;;;13.20;99.90;;;;;;5006939;28;20077;-66
2022/06/04 08:46:41;;;;;;;8.07;6.45;;;13.30;99.90;;;;;;5009690;28;20052;-66
2022/06/04 08:49:33;;;;;;;8.60;6.38;;;13.50;99.90;;;;;;5015441;28;20060;-68
2022/06/04 08:52:02;;;;;;;10.40;6.05;;;13.60;99.90;;;;;;5019162;28;20061;-66
2022/06/04 08:57:33;;;;;;;7.60;6.32;;;13.60;99.90;;;;;;5018231;28;20463;-70
2022/06/04 09:00:21;;;;;;;6.95;5.15;;;13.60;99.90;;;;;;5020028;28;20049;-65
2022/06/04 09:03:00;;;;;;;6.88;6.18;;;13.60;99.90;;;;;;5011674;28;20634;-65
2022/06/04 09:05:38;;;;;;;8.23;6.35;;;13.60;99.90;;;;;;5019027;28;20049;-68
2022/06/04 09:08:20;;;;;;;6.53;5.57;;;13.70;99.90;;;;;;5014298;28;20124;-66
2022/06/04 09:10:57;;;;;;;10.02;6.85;;;13.80;99.90;;;;;;5021770;28;20046;-65
2022/06/04 09:13:34;;;;;;;9.93;6.78;;;13.80;99.90;;;;;;5015997;28;20380;-69
2022/06/04 09:16:40;;;;;;;14.15;6.97;;;13.80;99.90;;;;;;5019301;28;20141;-65
2022/06/04 09:19:19;;;;;;;9.65;5.30;;;13.70;99.90;;;;;;4976404;28;20046;-65
2022/06/04 09:21:48;;;;;;;10.48;7.13;;;13.60;99.90;;;;;;4987199;28;20209;-69
2022/06/04 09:24:15;;;;;;;9.77;5.60;;;13.60;99.90;;;;;;4996122;28;20084;-65
2022/06/04 09:26:51;;;;;;;10.98;6.78;;;13.60;99.90;;;;;;5020547;28;20519;-66
2022/06/04 09:29:39;;;;;;;12.95;6.53;;;13.60;99.90;;;;;;5019205;28;20067;-65
2022/06/04 09:32:25;;;;;;;8.48;7.47;;;13.50;99.90;;;;;;5019012;28;20054;-65
2022/06/04 09:34:54;;;;;;;8.55;7.03;;;13.70;99.90;;;;;;5019186;28;20049;-66
2022/06/04 09:37:20;;;;;;;8.23;7.13;;;13.80;99.90;;;;;;5017458;28;20115;-66
2022/06/04 09:40:04;;;;;;;6.82;5.93;;;13.80;99.90;;;;;;5018195;28;20049;-66
2022/06/04 09:42:32;;;;;;;7.47;5.22;;;13.90;99.90;;;;;;5022168;28;20098;-66
2022/06/04 09:45:02;;;;;;;7.05;6.35;;;14.00;99.90;;;;;;5019563;28;20206;-69
2022/06/04 09:47:43;;;;;;;7.60;6.80;;;14.20;99.90;;;;;;5021744;28;20041;-67
2022/06/04 09:50:34;;;;;;;11.43;6.70;;;14.30;99.90;;;;;;5012796;28;20171;-65
2022/06/04 09:53:21;;;;;;;9.20;5.60;;;14.30;99.90;;;;;;5017204;28;20065;-65
2022/06/04 09:55:53;;;;;;;6.38;5.30;;;14.30;99.90;;;;;;5014966;28;20064;-65
2022/06/04 09:58:25;;;;;;;9.63;6.07;;;14.40;99.90;;;;;;5015838;28;20479;-67
2022/06/04 10:01:16;;;;;;;5.95;5.35;;;14.50;99.90;;;;;;5016323;28;20665;-65
2022/06/04 10:03:45;;;;;;;9.98;6.93;;;14.50;99.90;;;;;;5013382;28;20168;-67
2022/06/04 10:06:15;;;;;;;6.65;5.90;;;14.60;99.90;;;;;;5018705;28;20053;-67
2022/06/04 10:11:51;;;;;;;7.28;6.57;;;14.70;99.90;;;;;;5021888;28;20126;-67
2022/06/04 10:14:37;;;;;;;8.32;6.53;;;14.50;99.90;;;;;;5010561;28;20132;-65
2022/06/04 10:17:17;;;;;;;6.60;5.88;;;14.50;99.90;;;;;;5021031;28;20046;-65
2022/06/04 10:19:54;;;;;;;7.05;5.95;;;14.80;99.90;;;;;;5017848;28;20056;-68
2022/06/04 10:22:22;;;;;;;6.47;5.50;;;14.90;99.90;;;;;;5020811;28;20452;-68
2022/06/04 10:24:58;;;;;;;6.05;4.78;;;14.90;99.90;;;;;;5019599;28;20081;-65
2022/06/04 10:28:10;;;;;;;6.75;4.90;;;14.80;99.90;;;;;;5018784;28;20045;-66
2022/06/04 10:31:09;;;;;;;6.25;5.32;;;15.00;99.90;;;;;;5014389;28;20861;-69
2022/06/04 10:33:52;;;;;;;7.35;5.85;;;15.10;99.90;;;;;;5018201;28;20048;-65
2022/06/04 10:36:43;;;;;;;5.40;4.90;;;15.30;99.90;;;;;;5020631;28;20102;-68
2022/06/04 10:39:41;;;;;;;5.55;4.72;;;15.30;99.90;;;;;;5024133;28;20488;-66
2022/06/04 10:42:38;;;;;;;7.25;5.72;;;15.50;99.90;;;;;;5015961;28;20056;-66
2022/06/04 10:45:32;;;;;;;5.25;4.75;;;15.30;99.90;;;;;;5017267;28;20061;-64
2022/06/04 10:48:31;;;;;;;6.82;5.03;;;15.50;99.90;;;;;;5022663;28;20153;-66
2022/06/04 10:53:57;;;;;;;6.40;5.85;;;15.60;99.90;;;;;;5020127;28;20797;-65
2022/06/04 10:56:30;;;;;;;6.57;5.53;;;15.50;99.90;;;;;;4992773;28;20490;-65
2022/06/04 10:59:24;;;;;;;6.18;5.50;;;15.30;99.90;;;;;;5020981;28;20056;-68
2022/06/04 11:01:55;;;;;;;5.88;4.57;;;15.50;99.90;;;;;;4999316;28;20466;-67
2022/06/04 11:04:34;;;;;;;6.47;5.95;;;15.20;99.90;;;;;;5021125;28;20089;-66
2022/06/04 11:07:07;;;;;;;5.40;4.78;;;15.10;99.90;;;;;;5014971;28;20109;-65
2022/06/04 11:09:40;;;;;;;6.38;4.63;;;15.20;99.90;;;;;;5018373;28;20108;-68
2022/06/04 11:12:29;;;;;;;4.43;4.00;;;15.40;99.90;;;;;;5020844;28;20053;-68
2022/06/04 11:15:03;;;;;;;4.80;4.40;;;15.20;99.90;;;;;;5023483;28;20120;-66
2022/06/04 11:17:44;;;;;;;6.20;4.38;;;15.10;99.90;;;;;;5020694;28;20050;-69
2022/06/04 11:20:19;;;;;;;6.78;4.38;;;15.30;99.90;;;;;;5020908;28;20403;-68
2022/06/04 11:23:09;;;;;;;6.30;4.68;;;15.50;99.90;;;;;;5023397;28;20072;-69
2022/06/04 11:25:39;;;;;;;4.95;4.43;;;15.60;99.90;;;;;;5023583;28;20049;-65
2022/06/04 11:28:11;;;;;;;4.78;4.28;;;15.80;99.90;;;;;;5021807;28;20501;-67
2022/06/04 11:31:06;;;;;;;5.45;3.80;;;16.00;99.90;;;;;;5014096;28;20064;-66
2022/06/04 11:33:52;;;;;;;5.05;4.53;;;16.20;99.90;;;;;;5015707;28;20052;-66
2022/06/04 11:36:18;;;;;;;6.88;3.88;;;16.10;99.90;;;;;;5016703;28;20129;-67
2022/06/04 11:38:54;;;;;;;4.78;4.07;;;15.80;99.90;;;;;;5020541;28;20080;-67
2022/06/04 11:41:37;;;;;;;3.50;3.20;;;15.70;99.90;;;;;;5013753;28;20148;-67
2022/06/04 11:44:22;;;;;;;3.95;3.63;;;15.50;99.90;;;;;;5015674;28;20641;-67
2022/06/04 11:47:18;;;;;;;7.20;5.00;;;15.50;99.90;;;;;;5012680;28;20156;-66
2022/06/04 11:49:49;;;;;;;6.40;5.75;;;15.40;99.90;;;;;;5016402;28;20057;-66
2022/06/04 11:52:30;;;;;;;7.20;5.43;;;15.40;99.90;;;;;;5014601;28;20148;-67
2022/06/04 11:55:02;;;;;;;;;;;15.70;99.90;;;;;;5019820;28;20049;-67
2022/06/04 11:57:52;;;;;;;6.50;4.32;;;15.60;99.90;;;;;;5019395;28;19948;-67
2022/06/04 12:00:22;;;;;;;4.13;3.72;;;15.90;99.90;;;;;;5015023;28;20053;-71
2022/06/04 12:03:12;;;;;;;6.60;4.18;;;15.80;99.90;;;;;;5024552;28;20064;-65
2022/06/04 12:06:03;;;;;;;6.43;4.85;;;15.80;99.90;;;;;;5019346;28;20051;-71
2022/06/04 12:08:46;;;;;;;7.20;5.07;;;16.00;99.90;;;;;;5015676;28;20053;-68
2022/06/04 12:11:20;;;;;;;4.90;4.50;;;16.00;99.90;;;;;;5018962;28;20491;-67
2022/06/04 12:14:04;;;;;;;7.10;4.80;;;16.20;99.90;;;;;;5016472;28;20443;-69
2022/06/04 12:16:34;;;;;;;4.50;4.03;;;16.20;99.90;;;;;;5015282;28;20061;-71
2022/06/04 12:24:15;;;;;;;6.28;4.53;;;16.50;99.90;;;;;;5009972;28;20115;-65
2022/06/04 12:25:15;;;;;;;5.10;4.03;;;16.40;99.90;;;;;;5022162;28;20476;-66
2022/06/04 12:27:58;;;;;;;4.85;3.67;;;16.40;99.90;;;;;;5015181;28;20052;-67
2022/06/04 12:30:46;;;;;;;6.47;4.43;;;16.30;99.90;;;;;;5020938;28;20525;-67
2022/06/04 12:33:23;;;;;;;4.13;3.60;;;16.40;99.90;;;;;;5016315;28;20054;-67
2022/06/04 12:36:03;;;;;;;5.40;4.68;;;16.40;99.90;;;;;;5015272;28;20080;-69
2022/06/04 12:38:32;;;;;;;;;;;16.50;99.90;;;;;;5017350;28;20077;-68
2022/06/04 12:41:13;;;;;;;5.75;5.18;;;16.70;99.90;;;;;;5015168;28;20007;-68
2022/06/04 12:44:01;;;;;;;4.60;3.90;;;16.80;99.90;;;;;;5011513;28;20080;-69
2022/06/04 12:46:33;;;;;;;4.40;3.95;;;16.80;99.90;;;;;;5011385;28;20053;-69
2022/06/04 12:49:30;;;;;;;4.03;3.25;;;16.90;99.90;;;;;;5016406;28;20055;-66
2022/06/04 12:52:27;;;;;;;4.45;4.05;;;16.80;99.90;;;;;;5022450;28;20111;-67
2022/06/04 12:55:02;;;;;;;6.68;4.38;;;16.80;99.90;;;;;;5013347;28;20487;-70
2022/06/04 12:57:47;;;;;;;5.88;4.13;;;16.90;99.90;;;;;;5002402;28;20057;-66
2022/06/04 13:00:18;;;;;;;5.03;4.35;;;17.00;99.90;;;;;;5009458;28;20053;-68
2022/06/04 13:02:59;;;;;;;6.32;3.85;;;16.70;99.90;;;;;;5012002;28;20670;-68
2022/06/04 13:05:28;;;;;;;6.43;4.60;;;17.00;99.90;;;;;;5010913;28;20402;-66
2022/06/04 13:08:19;;;;;;;4.35;3.97;;;17.20;99.90;;;;;;5011515;28;20143;-65
2022/06/04 13:11:00;;;;;;;4.75;4.00;;;17.30;99.90;;;;;;5011950;28;20049;-66
2022/06/04 13:13:45;;;;;;;8.23;4.38;;;17.40;99.90;;;;;;5015072;28;20115;-65
2022/06/04 13:16:27;;;;;;;4.13;3.22;;;17.40;99.90;;;;;;5010964;28;20049;-68
2022/06/04 13:19:21;;;;;;;4.05;3.70;;;17.50;99.90;;;;;;5012318;28;20213;-69
2022/06/04 13:21:49;;;;;;;4.60;4.13;;;17.20;99.90;;;;;;5009550;28;20444;-71
2022/06/04 13:24:25;;;;;;;5.70;4.15;;;17.40;99.90;;;;;;5012208;28;20153;-68
2022/06/04 13:27:01;;;;;;;4.13;3.72;;;17.10;99.90;;;;;;5011112;28;20054;-67
2022/06/04 13:29:37;;;;;;;3.65;3.15;;;17.40;99.90;;;;;;5009873;28;20053;-67
2022/06/04 13:32:15;;;;;;;6.10;4.30;;;17.30;99.90;;;;;;5011990;28;20526;-71
2022/06/04 13:34:43;;;;;;;4.60;3.78;;;17.30;99.90;;;;;;5010291;28;20057;-69
2022/06/04 13:37:33;;;;;;;6.30;4.35;;;17.50;99.90;;;;;;5010516;28;20097;-69
2022/06/04 13:40:02;;;;;;;5.22;3.58;;;17.50;99.90;;;;;;5013671;28;20049;-67